Time;durP1;ratioP1;P1;durP2;ratioP2;P2;SDS_P1;SDS_P2;PMS_P1;PMS_P2;Temp;Humidity;BMP_temperature;BMP_pressure;BME280_temperature;BME280_humidity;BME280_pressure;Samples;Min_cycle;Max_cycle;Signal;HPM_P1;HPM_P2
2023/05/11 00:01:29;;;;;;;3.38;2.33;;;15.90;55.10;;;;;;5010604;28;20203;-51
2023/05/11 00:04:00;;;;;;;4.88;2.35;;;15.90;55.10;;;;;;5010522;28;20193;-50
2023/05/11 00:06:33;;;;;;;5.35;2.75;;;15.90;55.10;;;;;;5011283;28;20660;-50
2023/05/11 00:09:03;;;;;;;4.10;2.20;;;15.90;55.10;;;;;;5011303;28;20296;-48
2023/05/11 00:11:34;;;;;;;5.93;2.10;;;15.90;55.10;;;;;;5011117;28;20655;-49
2023/05/11 00:14:05;;;;;;;3.45;2.20;;;16.00;55.20;;;;;;5011034;28;20208;-49
2023/05/11 00:16:35;;;;;;;3.25;2.05;;;16.00;55.10;;;;;;5011360;28;20204;-49
2023/05/11 00:19:06;;;;;;;2.85;1.75;;;16.00;55.20;;;;;;5012710;28;20597;-51
2023/05/11 00:21:38;;;;;;;3.90;2.22;;;16.00;55.10;;;;;;5014282;28;20244;-48
2023/05/11 00:24:10;;;;;;;3.55;1.90;;;16.00;55.10;;;;;;5014492;28;20228;-49
2023/05/11 00:26:40;;;;;;;4.03;2.03;;;16.00;55.10;;;;;;5014903;28;20219;-50
2023/05/11 00:29:11;;;;;;;5.25;2.42;;;16.00;55.10;;;;;;5014359;28;20711;-49
2023/05/11 00:31:41;;;;;;;3.13;2.22;;;16.00;55.10;;;;;;5014584;28;20204;-50
2023/05/11 00:34:12;;;;;;;4.10;2.35;;;16.00;55.10;;;;;;5014341;28;20196;-51
2023/05/11 00:36:45;;;;;;;4.18;2.13;;;16.00;55.10;;;;;;5014470;28;20196;-49
2023/05/11 00:39:16;;;;;;;4.65;2.20;;;16.00;55.10;;;;;;5014089;28;20228;-50
2023/05/11 00:41:47;;;;;;;2.72;2.00;;;16.00;55.00;;;;;;5014497;28;20236;-53
2023/05/11 00:44:17;;;;;;;3.60;1.92;;;16.00;55.00;;;;;;5013859;28;20200;-50
2023/05/11 00:46:48;;;;;;;2.70;1.90;;;16.00;55.00;;;;;;5014068;28;20204;-49
2023/05/11 00:49:21;;;;;;;4.10;1.85;;;16.00;55.00;;;;;;5014348;28;20220;-55
2023/05/11 00:51:53;;;;;;;3.95;1.98;;;16.00;55.00;;;;;;5014495;28;20207;-51
2023/05/11 00:54:24;;;;;;;4.53;2.40;;;16.00;55.00;;;;;;5014387;28;20205;-53
2023/05/11 00:56:55;;;;;;;2.67;1.77;;;16.00;54.90;;;;;;5014160;28;20560;-50
2023/05/11 00:59:26;;;;;;;3.30;1.95;;;16.00;54.90;;;;;;5014112;28;20240;-51
2023/05/11 01:01:56;;;;;;;3.45;1.95;;;16.10;55.50;;;;;;5014024;28;20204;-50
2023/05/11 01:04:27;;;;;;;3.30;1.50;;;16.10;54.90;;;;;;5013831;28;20676;-52
2023/05/11 01:07:07;;;;;;;4.05;2.42;;;16.10;55.00;;;;;;5014115;28;20197;-48
2023/05/11 01:09:49;;;;;;;3.50;2.10;;;16.10;54.90;;;;;;5014106;28;20212;-53
2023/05/11 01:12:29;;;;;;;3.85;2.30;;;16.10;54.90;;;;;;5014156;28;20197;-53
2023/05/11 01:15:06;;;;;;;3.15;1.88;;;16.10;54.90;;;;;;5014250;28;20204;-53
2023/05/11 01:17:45;;;;;;;2.17;1.60;;;16.10;54.90;;;;;;5013563;28;20203;-54
2023/05/11 01:20:23;;;;;;;4.60;2.20;;;16.10;54.90;;;;;;5011434;28;20306;-52
2023/05/11 01:23:14;;;;;;;3.55;1.77;;;16.10;54.90;;;;;;5014052;28;20572;-53
2023/05/11 01:26:08;;;;;;;3.13;2.00;;;16.10;54.90;;;;;;5013992;28;20197;-55
2023/05/11 01:29:07;;;;;;;4.38;2.13;;;16.20;55.00;;;;;;5014038;28;20220;-55
2023/05/11 01:31:43;;;;;;;2.63;1.85;;;16.20;55.00;;;;;;5012407;28;20203;-50
2023/05/11 01:34:20;;;;;;;3.13;1.60;;;16.20;55.00;;;;;;5013707;28;20200;-52
2023/05/11 01:36:56;;;;;;;3.28;1.90;;;16.20;55.00;;;;;;5013483;28;20209;-50
2023/05/11 01:39:31;;;;;;;2.88;1.85;;;16.20;55.00;;;;;;5012992;28;20786;-50
2023/05/11 01:42:08;;;;;;;2.75;1.52;;;16.20;55.00;;;;;;5012661;28;20538;-52
2023/05/11 01:44:42;;;;;;;3.42;2.10;;;16.20;54.90;;;;;;4992940;28;20571;-52
2023/05/11 01:47:17;;;;;;;2.92;1.77;;;16.20;55.00;;;;;;4993863;28;20202;-49
2023/05/11 01:49:48;;;;;;;3.03;1.90;;;16.20;55.00;;;;;;4993485;28;20224;-52
2023/05/11 01:52:21;;;;;;;2.40;1.55;;;16.30;55.00;;;;;;4993528;28;20198;-48
2023/05/11 01:54:53;;;;;;;3.33;2.00;;;16.30;55.00;;;;;;4993343;28;20198;-50
2023/05/11 01:57:25;;;;;;;6.85;2.47;;;16.30;55.00;;;;;;4993380;28;20204;-53
2023/05/11 01:59:58;;;;;;;5.18;2.30;;;16.30;55.80;;;;;;5005433;28;20232;-50
2023/05/11 02:02:32;;;;;;;6.80;2.38;;;16.40;56.20;;;;;;5012876;28;20259;-50
2023/05/11 02:05:04;;;;;;;3.47;1.95;;;16.40;56.10;;;;;;5012831;28;20200;-50
2023/05/11 02:07:36;;;;;;;6.82;2.20;;;16.40;56.30;;;;;;5012532;28;20220;-48
2023/05/11 02:10:07;;;;;;;4.30;2.05;;;16.50;56.10;;;;;;5012615;28;20220;-50
2023/05/11 02:12:39;;;;;;;6.93;1.98;;;16.50;55.90;;;;;;5012711;28;20200;-54
2023/05/11 02:15:12;;;;;;;4.22;2.17;;;16.50;55.80;;;;;;5012730;28;20216;-48
2023/05/11 02:17:45;;;;;;;2.92;1.70;;;16.50;55.70;;;;;;5013035;28;20220;-51
2023/05/11 02:20:16;;;;;;;4.75;2.10;;;16.60;55.60;;;;;;5012779;28;20621;-51
2023/05/11 02:22:48;;;;;;;3.10;2.00;;;16.60;55.50;;;;;;5012539;28;20652;-51
2023/05/11 02:25:20;;;;;;;3.45;1.83;;;16.60;55.40;;;;;;5012508;28;20662;-49
2023/05/11 02:27:50;;;;;;;4.15;1.88;;;16.60;55.40;;;;;;5012513;28;20519;-50
2023/05/11 02:30:21;;;;;;;3.03;1.67;;;16.60;55.30;;;;;;5012181;28;20197;-48
2023/05/11 02:32:56;;;;;;;2.92;1.88;;;16.70;55.30;;;;;;5012108;28;20201;-50
2023/05/11 02:35:30;;;;;;;2.90;1.80;;;16.70;55.20;;;;;;5012299;28;20246;-50
2023/05/11 02:38:03;;;;;;;3.45;1.75;;;16.70;55.10;;;;;;5012043;28;20200;-51
2023/05/11 02:40:37;;;;;;;3.97;1.65;;;16.70;55.00;;;;;;5012342;28;20267;-48
2023/05/11 02:43:13;;;;;;;3.08;1.73;;;16.80;54.90;;;;;;5012066;28;20200;-50
2023/05/11 02:45:47;;;;;;;2.22;1.45;;;16.80;54.80;;;;;;5011748;28;20200;-49
2023/05/11 02:48:26;;;;;;;3.03;1.80;;;16.80;54.90;;;;;;5011474;28;20209;-50
2023/05/11 02:50:59;;;;;;;3.42;1.73;;;16.80;54.90;;;;;;5012086;28;20207;-52
2023/05/11 02:53:32;;;;;;;2.85;1.45;;;16.80;54.80;;;;;;5011989;28;20680;-50
2023/05/11 02:56:03;;;;;;;3.10;1.50;;;16.80;54.80;;;;;;5011835;28;20209;-50
2023/05/11 02:58:33;;;;;;;2.05;1.30;;;16.90;54.70;;;;;;5011948;28;20224;-50
2023/05/11 03:01:07;;;;;;;3.80;1.42;;;16.90;54.80;;;;;;5011666;28;20449;-50
2023/05/11 03:03:40;;;;;;;2.28;1.60;;;16.90;54.80;;;;;;5011858;28;20805;-50
2023/05/11 03:06:11;;;;;;;2.83;1.65;;;16.90;54.70;;;;;;5011988;28;20197;-50
2023/05/11 03:08:42;;;;;;;2.03;1.40;;;16.90;54.70;;;;;;5011908;28;20224;-52
2023/05/11 03:11:16;;;;;;;2.80;1.50;;;16.90;54.70;;;;;;5011624;28;20205;-48
2023/05/11 03:13:48;;;;;;;3.13;1.73;;;16.90;54.70;;;;;;5011331;28;20251;-52
2023/05/11 03:16:20;;;;;;;3.30;1.42;;;16.90;54.60;;;;;;5011432;28;20283;-49
2023/05/11 03:18:54;;;;;;;2.50;1.35;;;17.00;54.50;;;;;;5011022;28;20221;-52
2023/05/11 03:21:25;;;;;;;2.55;1.30;;;17.00;54.50;;;;;;5010185;28;20224;-53
2023/05/11 03:24:00;;;;;;;2.78;1.48;;;17.00;54.40;;;;;;5011108;28;20614;-50
2023/05/11 03:26:31;;;;;;;2.33;1.20;;;17.00;54.50;;;;;;5011244;28;20784;-53
2023/05/11 03:29:03;;;;;;;2.83;1.50;;;17.10;54.50;;;;;;5011348;28;20217;-53
2023/05/11 03:31:34;;;;;;;1.77;1.30;;;17.10;54.50;;;;;;5011790;28;20209;-53
2023/05/11 03:34:07;;;;;;;1.42;0.90;;;17.10;54.50;;;;;;5011336;28;20657;-50
2023/05/11 03:36:39;;;;;;;2.67;1.15;;;17.10;54.50;;;;;;5011769;28;20653;-52
2023/05/11 03:39:12;;;;;;;2.20;1.20;;;17.10;54.40;;;;;;5011450;28;20228;-51
2023/05/11 03:41:44;;;;;;;2.65;1.40;;;17.10;54.30;;;;;;5011269;28;20683;-50
2023/05/11 03:44:15;;;;;;;2.20;1.23;;;17.10;54.30;;;;;;5011187;28;20680;-52
2023/05/11 03:46:50;;;;;;;1.90;1.15;;;17.10;54.30;;;;;;5011222;28;20266;-53
2023/05/11 03:49:23;;;;;;;2.10;1.30;;;17.20;54.30;;;;;;5011138;28;20256;-51
2023/05/11 03:51:54;;;;;;;2.42;1.00;;;17.20;54.30;;;;;;5010959;28;20672;-53
2023/05/11 03:54:25;;;;;;;2.15;1.35;;;17.20;54.40;;;;;;5013009;28;20680;-52
2023/05/11 03:56:56;;;;;;;2.78;1.38;;;17.20;54.30;;;;;;5015649;28;20192;-54
2023/05/11 03:59:27;;;;;;;1.50;1.05;;;17.20;54.20;;;;;;5015026;28;20564;-51
2023/05/11 04:01:58;;;;;;;1.73;1.23;;;17.30;54.10;;;;;;5014876;28;20567;-52
2023/05/11 04:04:33;;;;;;;2.40;1.35;;;17.30;54.20;;;;;;5014778;28;20196;-52
2023/05/11 04:07:04;;;;;;;1.80;1.17;;;17.30;54.40;;;;;;5014530;28;20211;-51
2023/05/11 04:09:34;;;;;;;1.50;1.00;;;17.30;53.90;;;;;;5014184;28;20227;-50
2023/05/11 04:12:05;;;;;;;2.50;1.30;;;17.30;53.90;;;;;;5014337;28;20193;-53
2023/05/11 04:14:36;;;;;;;1.65;1.33;;;17.40;53.90;;;;;;5014564;28;20200;-51
2023/05/11 04:17:06;;;;;;;1.52;1.05;;;17.40;53.80;;;;;;5014597;28;20200;-51
2023/05/11 04:19:39;;;;;;;2.22;1.20;;;17.40;53.80;;;;;;5014835;28;20212;-50
2023/05/11 04:22:11;;;;;;;1.98;1.13;;;17.50;53.90;;;;;;5014922;28;20201;-54
2023/05/11 04:24:41;;;;;;;1.15;0.93;;;17.50;53.80;;;;;;5014493;28;20204;-51
2023/05/11 04:27:12;;;;;;;1.65;1.23;;;17.50;53.80;;;;;;5014438;28;20193;-55
2023/05/11 04:29:43;;;;;;;1.98;1.35;;;17.50;53.70;;;;;;5014702;28;20224;-54
2023/05/11 04:32:14;;;;;;;1.23;0.85;;;17.50;53.60;;;;;;5015237;28;20200;-53
2023/05/11 04:34:47;;;;;;;2.63;1.38;;;17.50;53.50;;;;;;5014395;28;20680;-51
2023/05/11 04:37:17;;;;;;;1.40;1.13;;;17.60;53.40;;;;;;5014618;28;20232;-53
2023/05/11 04:39:48;;;;;;;1.50;1.00;;;17.60;53.30;;;;;;5013838;28;20220;-50
2023/05/11 04:42:19;;;;;;;2.55;1.10;;;17.60;53.40;;;;;;5013584;28;20259;-50
2023/05/11 04:44:49;;;;;;;1.95;1.10;;;17.60;53.40;;;;;;5014336;28;20197;-53
2023/05/11 04:47:20;;;;;;;1.73;1.15;;;17.60;53.40;;;;;;5014893;28;20196;-50
2023/05/11 04:49:52;;;;;;;2.25;1.42;;;17.60;53.40;;;;;;5014561;28;20213;-56
2023/05/11 04:52:23;;;;;;;1.88;1.20;;;17.70;53.30;;;;;;5014317;28;20201;-50
2023/05/11 04:54:54;;;;;;;2.70;0.90;;;17.60;53.30;;;;;;5014187;28;20575;-49
2023/05/11 04:57:24;;;;;;;1.63;1.17;;;17.70;53.20;;;;;;5014254;28;20204;-53
2023/05/11 04:59:55;;;;;;;1.05;0.95;;;17.70;53.20;;;;;;5014065;28;20278;-53
2023/05/11 05:02:26;;;;;;;2.63;1.27;;;17.70;53.20;;;;;;5014303;28;20197;-53
2023/05/11 05:04:58;;;;;;;1.58;1.23;;;17.70;53.10;;;;;;5013401;28;20200;-51
2023/05/11 05:07:29;;;;;;;1.60;1.20;;;17.60;53.00;;;;;;5014054;28;20270;-51
2023/05/11 05:10:00;;;;;;;1.60;1.40;;;17.70;53.10;;;;;;5013891;28;20743;-52
2023/05/11 05:12:30;;;;;;;2.08;1.30;;;17.60;53.10;;;;;;5013305;28;20284;-54
2023/05/11 05:15:01;;;;;;;1.60;1.10;;;17.60;53.10;;;;;;5013900;28;20197;-51
2023/05/11 05:17:32;;;;;;;1.40;1.10;;;17.60;53.00;;;;;;5013783;28;20217;-51
2023/05/11 05:20:04;;;;;;;1.92;1.38;;;17.60;53.00;;;;;;5013369;28;20227;-51
2023/05/11 05:22:36;;;;;;;1.92;1.30;;;17.60;53.10;;;;;;5013199;28;20673;-52
2023/05/11 05:25:07;;;;;;;1.60;1.10;;;17.60;53.10;;;;;;5013370;28;20216;-56
2023/05/11 05:27:37;;;;;;;1.63;1.20;;;17.60;53.10;;;;;;5013811;28;20197;-54
2023/05/11 05:30:09;;;;;;;1.27;0.85;;;17.60;53.10;;;;;;5013783;28;20224;-49
2023/05/11 05:32:40;;;;;;;1.33;1.10;;;17.60;53.10;;;;;;5013127;28;20197;-53
2023/05/11 05:35:13;;;;;;;1.27;1.17;;;17.60;53.00;;;;;;5013083;28;20607;-51
2023/05/11 05:37:43;;;;;;;2.72;1.27;;;17.60;53.10;;;;;;5013560;28;20208;-53
2023/05/11 05:40:14;;;;;;;1.52;1.20;;;17.60;53.00;;;;;;5012857;28;20321;-54
2023/05/11 05:42:45;;;;;;;1.67;1.27;;;17.50;53.00;;;;;;5012682;28;20209;-52
2023/05/11 05:45:15;;;;;;;2.90;1.40;;;17.50;53.00;;;;;;5013416;28;20439;-56
2023/05/11 05:47:47;;;;;;;1.77;1.20;;;17.50;53.00;;;;;;5013536;28;20204;-54
2023/05/11 05:50:20;;;;;;;1.35;1.20;;;17.50;53.00;;;;;;5012842;28;20287;-53
2023/05/11 05:52:51;;;;;;;2.00;1.30;;;17.50;53.00;;;;;;5013149;28;20276;-53
2023/05/11 05:55:22;;;;;;;2.03;1.30;;;17.50;53.00;;;;;;5013377;28;20205;-50
2023/05/11 05:57:52;;;;;;;1.98;1.25;;;17.50;53.00;;;;;;5012896;28;20199;-52
2023/05/11 06:00:23;;;;;;;1.80;1.48;;;17.40;53.00;;;;;;5012889;28;20252;-53
2023/05/11 06:02:54;;;;;;;2.03;1.38;;;17.40;53.00;;;;;;5013265;28;20610;-51
2023/05/11 06:05:26;;;;;;;1.30;1.20;;;17.40;53.00;;;;;;5013241;28;20207;-55
2023/05/11 06:07:58;;;;;;;1.73;1.30;;;17.40;53.00;;;;;;5012674;28;20204;-55
2023/05/11 06:10:29;;;;;;;2.05;1.45;;;17.40;53.00;;;;;;5012184;28;20197;-49
2023/05/11 06:12:59;;;;;;;1.85;1.30;;;17.40;53.00;;;;;;5000387;28;20207;-50
2023/05/11 06:15:30;;;;;;;2.25;1.33;;;17.40;53.10;;;;;;5012847;28;20208;-49
2023/05/11 06:18:01;;;;;;;2.00;1.42;;;17.30;53.00;;;;;;5012152;28;20564;-56
2023/05/11 06:20:34;;;;;;;1.85;1.15;;;17.30;53.00;;;;;;5012402;28;20587;-49
2023/05/11 06:23:05;;;;;;;3.00;1.42;;;17.30;53.00;;;;;;5011350;28;21660;-49
2023/05/11 06:25:37;;;;;;;2.50;1.63;;;17.30;53.10;;;;;;5010745;28;20637;-53
2023/05/11 06:28:07;;;;;;;2.40;1.63;;;17.30;53.10;;;;;;5012689;28;20645;-50
2023/05/11 06:30:38;;;;;;;1.55;1.38;;;17.20;53.10;;;;;;5013055;28;20201;-51
2023/05/11 06:33:09;;;;;;;1.73;1.50;;;17.20;53.10;;;;;;5012778;28;20196;-52
2023/05/11 06:35:41;;;;;;;1.77;1.48;;;17.20;53.10;;;;;;5012480;28;20200;-55
2023/05/11 06:38:12;;;;;;;2.70;1.50;;;17.20;53.00;;;;;;5012139;28;20220;-52
2023/05/11 06:40:43;;;;;;;1.83;1.38;;;17.20;53.00;;;;;;5012325;28;20231;-50
2023/05/11 06:43:14;;;;;;;1.35;1.25;;;17.20;53.00;;;;;;5012245;28;20201;-54
2023/05/11 06:45:46;;;;;;;1.73;1.60;;;17.10;52.90;;;;;;5009451;28;20208;-55
2023/05/11 06:48:17;;;;;;;1.40;1.30;;;17.10;52.90;;;;;;4992404;28;20626;-55
2023/05/11 06:50:50;;;;;;;1.63;1.40;;;17.10;52.90;;;;;;4992160;28;20209;-51
2023/05/11 06:53:20;;;;;;;1.60;1.15;;;17.10;52.90;;;;;;4992546;28;20200;-50
2023/05/11 06:55:51;;;;;;;1.75;1.42;;;17.00;52.90;;;;;;4992991;28;20197;-53
2023/05/11 06:58:22;;;;;;;1.80;1.42;;;17.00;52.90;;;;;;5005618;28;20564;-52
2023/05/11 07:00:52;;;;;;;1.95;1.58;;;17.00;52.90;;;;;;5011380;28;20221;-54
2023/05/11 07:03:23;;;;;;;2.10;1.48;;;17.00;53.00;;;;;;5011660;28;20193;-52
2023/05/11 07:05:55;;;;;;;2.10;1.50;;;17.00;52.90;;;;;;5004069;28;20192;-50
2023/05/11 07:08:26;;;;;;;2.70;1.63;;;17.00;52.90;;;;;;5011172;28;20622;-49
2023/05/11 07:10:57;;;;;;;2.20;1.55;;;16.90;52.90;;;;;;5008922;28;20545;-51
2023/05/11 07:13:27;;;;;;;2.88;1.92;;;16.90;52.90;;;;;;5002344;28;20244;-50
2023/05/11 07:15:58;;;;;;;3.90;2.22;;;16.90;52.80;;;;;;5011652;28;20201;-53
2023/05/11 07:18:28;;;;;;;4.43;2.15;;;16.90;52.80;;;;;;5011755;28;20217;-49
2023/05/11 07:21:01;;;;;;;4.38;2.13;;;16.90;52.80;;;;;;5010975;28;20220;-51
2023/05/11 07:23:32;;;;;;;3.38;2.08;;;16.80;52.80;;;;;;5010512;28;20201;-50
2023/05/11 07:26:07;;;;;;;3.15;1.60;;;16.80;52.80;;;;;;5011047;28;20202;-51
2023/05/11 07:28:38;;;;;;;3.88;1.83;;;16.80;52.80;;;;;;5009588;28;20946;-52
2023/05/11 07:31:09;;;;;;;2.78;1.98;;;16.80;52.70;;;;;;5011632;28;20209;-50
2023/05/11 07:33:40;;;;;;;3.85;2.30;;;16.80;52.80;;;;;;5011389;28;20197;-49
2023/05/11 07:36:13;;;;;;;4.13;1.92;;;16.80;52.80;;;;;;5011081;28;20197;-50
2023/05/11 07:38:43;;;;;;;3.75;2.22;;;16.70;52.80;;;;;;5010514;28;20220;-50
2023/05/11 07:41:14;;;;;;;6.80;2.67;;;16.70;52.80;;;;;;5011471;28;20229;-49
2023/05/11 07:43:45;;;;;;;4.00;2.80;;;16.70;52.80;;;;;;5010830;28;20209;-52
2023/05/11 07:46:15;;;;;;;5.88;3.10;;;16.70;52.80;;;;;;5007274;28;20212;-51
2023/05/11 07:48:46;;;;;;;4.15;2.72;;;16.70;52.80;;;;;;5005349;28;20227;-48
2023/05/11 07:51:19;;;;;;;8.50;3.38;;;16.70;52.80;;;;;;5009149;28;20255;-49
2023/05/11 07:53:49;;;;;;;5.97;3.38;;;16.60;52.80;;;;;;4991094;28;20198;-53
2023/05/11 07:56:20;;;;;;;7.20;3.67;;;16.60;52.80;;;;;;4991824;28;20604;-52
2023/05/11 07:58:51;;;;;;;5.30;3.38;;;16.60;52.80;;;;;;4991383;28;20315;-52
2023/05/11 08:01:22;;;;;;;6.78;3.28;;;16.60;52.80;;;;;;4991718;28;20229;-50
2023/05/11 08:03:52;;;;;;;6.32;3.20;;;16.60;52.70;;;;;;4991509;28;20197;-49
2023/05/11 08:06:25;;;;;;;7.80;3.60;;;16.60;52.80;;;;;;4991054;28;20197;-51
2023/05/11 08:08:55;;;;;;;6.65;3.67;;;16.50;52.80;;;;;;4990271;28;20213;-49
2023/05/11 08:11:26;;;;;;;5.50;3.58;;;16.50;52.80;;;;;;4991456;28;20204;-52
2023/05/11 08:13:57;;;;;;;4.93;3.40;;;16.50;52.80;;;;;;5006093;28;20205;-52
2023/05/11 08:16:27;;;;;;;7.00;3.80;;;16.50;52.80;;;;;;5011390;28;20573;-52
2023/05/11 08:18:58;;;;;;;6.85;3.67;;;16.50;52.80;;;;;;5007192;28;20221;-51
2023/05/11 08:21:31;;;;;;;4.90;3.58;;;16.50;52.80;;;;;;5006641;28;20715;-53
2023/05/11 08:24:02;;;;;;;8.23;4.05;;;16.50;52.80;;;;;;5008390;28;20570;-55
2023/05/11 08:26:32;;;;;;;7.95;3.75;;;16.40;52.70;;;;;;5010410;28;20204;-51
2023/05/11 08:29:03;;;;;;;6.03;3.60;;;16.40;52.70;;;;;;5009905;28;20634;-52
2023/05/11 08:31:33;;;;;;;5.70;3.05;;;16.40;52.80;;;;;;5010791;28;20215;-55
2023/05/11 08:34:04;;;;;;;6.90;4.10;;;16.40;52.80;;;;;;5010255;28;20609;-53
2023/05/11 08:36:37;;;;;;;5.53;3.30;;;16.40;52.70;;;;;;5010315;28;20196;-53
2023/05/11 08:39:07;;;;;;;4.95;3.25;;;16.30;52.70;;;;;;5010203;28;20221;-51
2023/05/11 08:41:38;;;;;;;6.95;3.78;;;16.30;52.70;;;;;;5014399;28;20619;-52
2023/05/11 08:44:09;;;;;;;8.13;4.10;;;16.30;52.70;;;;;;5013991;28;20212;-50
2023/05/11 08:46:41;;;;;;;7.68;3.95;;;16.30;52.70;;;;;;5014412;28;20200;-50
2023/05/11 08:49:13;;;;;;;5.53;3.58;;;16.30;52.70;;;;;;5014470;28;20592;-48
2023/05/11 08:51:46;;;;;;;6.97;3.72;;;16.20;52.70;;;;;;5014781;28;20211;-51
2023/05/11 08:54:17;;;;;;;6.63;3.40;;;16.20;52.60;;;;;;5013985;28;20283;-49
2023/05/11 08:56:50;;;;;;;7.35;3.75;;;16.20;52.70;;;;;;5013917;28;20204;-53
2023/05/11 08:59:21;;;;;;;7.47;3.70;;;16.20;52.60;;;;;;5013292;28;20291;-53
2023/05/11 09:01:54;;;;;;;6.97;3.45;;;16.20;52.60;;;;;;5013616;28;20316;-51
2023/05/11 09:04:26;;;;;;;6.75;3.38;;;16.20;52.60;;;;;;5012821;28;20669;-55
2023/05/11 09:06:59;;;;;;;6.65;3.58;;;16.10;52.60;;;;;;4993404;28;20203;-49
2023/05/11 09:09:30;;;;;;;6.32;3.75;;;16.10;52.60;;;;;;5001303;28;20213;-51
2023/05/11 09:12:01;;;;;;;5.97;3.83;;;16.10;52.60;;;;;;5013792;28;20204;-54
2023/05/11 09:14:32;;;;;;;7.82;4.32;;;16.10;52.60;;;;;;4994043;28;20205;-51
2023/05/11 09:17:04;;;;;;;6.93;4.00;;;16.10;52.60;;;;;;4997459;28;20745;-53
2023/05/11 09:19:34;;;;;;;5.95;3.58;;;16.00;52.50;;;;;;4993961;28;20244;-52
2023/05/11 09:22:08;;;;;;;5.97;3.80;;;16.00;52.60;;;;;;4993574;28;20232;-55
2023/05/11 09:24:45;;;;;;;5.57;4.00;;;16.00;52.60;;;;;;5001579;28;20211;-52
2023/05/11 09:27:16;;;;;;;5.82;3.58;;;16.00;52.60;;;;;;5012782;28;20656;-54
2023/05/11 09:29:47;;;;;;;9.70;4.22;;;16.00;52.60;;;;;;5013024;28;20217;-50
2023/05/11 09:32:17;;;;;;;6.07;3.72;;;16.00;52.60;;;;;;5013860;28;20204;-55
2023/05/11 09:34:48;;;;;;;6.03;3.50;;;16.00;52.60;;;;;;5013595;28;20194;-51
2023/05/11 09:37:22;;;;;;;6.13;3.80;;;16.00;52.70;;;;;;5013438;28;20192;-53
2023/05/11 09:39:57;;;;;;;6.65;3.58;;;16.00;52.60;;;;;;5013394;28;20224;-57
2023/05/11 09:42:27;;;;;;;7.10;4.43;;;16.00;52.70;;;;;;5012493;28;20240;-52
2023/05/11 09:44:58;;;;;;;10.52;5.10;;;15.90;52.60;;;;;;5012826;28;20196;-54
2023/05/11 09:47:29;;;;;;;6.07;3.88;;;15.90;52.70;;;;;;5012551;28;20200;-51
2023/05/11 09:49:59;;;;;;;8.63;3.65;;;15.90;52.60;;;;;;5011309;28;20238;-55
2023/05/11 09:52:32;;;;;;;10.77;4.45;;;15.90;52.60;;;;;;5011539;28;20216;-50
2023/05/11 09:55:12;;;;;;;7.07;4.82;;;15.90;52.70;;;;;;5008997;28;20203;-50
2023/05/11 09:57:43;;;;;;;9.02;4.63;;;15.90;52.80;;;;;;5008615;28;20201;-50
2023/05/11 10:00:18;;;;;;;6.68;4.32;;;15.90;52.80;;;;;;5012208;28;20208;-49
2023/05/11 10:03:00;;;;;;;10.25;5.10;;;15.80;52.80;;;;;;5010458;28;20224;-50
2023/05/11 10:05:31;;;;;;;8.38;4.85;;;15.80;52.80;;;;;;5012351;28;20228;-50
2023/05/11 10:08:04;;;;;;;7.07;4.55;;;15.80;52.80;;;;;;5011973;28;20280;-51
2023/05/11 10:10:36;;;;;;;8.50;4.57;;;15.80;52.80;;;;;;5012480;28;20197;-52
2023/05/11 10:13:07;;;;;;;7.30;4.68;;;15.80;52.80;;;;;;5011739;28;20205;-48
2023/05/11 10:15:38;;;;;;;5.85;4.20;;;15.80;52.80;;;;;;5012072;28;20205;-51
2023/05/11 10:18:09;;;;;;;8.43;4.70;;;15.70;52.70;;;;;;5012150;28;20601;-52
2023/05/11 10:20:41;;;;;;;7.75;4.20;;;15.70;52.80;;;;;;5010503;28;20196;-54
2023/05/11 10:23:14;;;;;;;9.32;4.40;;;15.70;52.70;;;;;;5011236;28;20709;-55
2023/05/11 10:25:45;;;;;;;6.55;4.15;;;15.80;53.30;;;;;;5010547;28;20235;-53
2023/05/11 10:28:16;;;;;;;7.15;4.28;;;15.70;52.70;;;;;;5011177;28;20220;-48
2023/05/11 10:30:48;;;;;;;6.85;4.47;;;15.70;52.70;;;;;;5011394;28;20197;-47
2023/05/11 10:33:19;;;;;;;8.23;4.32;;;15.70;52.70;;;;;;5011504;28;20692;-48
2023/05/11 10:35:52;;;;;;;9.48;4.53;;;15.70;52.70;;;;;;5011579;28;20196;-50
2023/05/11 10:38:26;;;;;;;7.45;4.05;;;15.70;52.70;;;;;;5010107;28;20225;-48
2023/05/11 10:40:59;;;;;;;8.05;4.32;;;15.60;52.60;;;;;;5011559;28;20216;-49
2023/05/11 10:43:54;;;;;;;7.68;4.18;;;15.60;52.60;;;;;;5010498;28;20238;-49
2023/05/11 10:46:41;;;;;;;7.30;3.85;;;15.60;52.60;;;;;;5010896;28;20653;-49
2023/05/11 10:49:29;;;;;;;8.75;4.32;;;15.60;52.60;;;;;;5011266;28;20220;-48
2023/05/11 10:52:24;;;;;;;7.47;4.47;;;15.60;52.60;;;;;;5008867;28;20649;-49
2023/05/11 10:55:11;;;;;;;8.75;4.15;;;15.60;52.60;;;;;;5011127;28;20646;-48
2023/05/11 10:58:01;;;;;;;8.27;4.10;;;15.60;53.20;;;;;;5011471;28;20197;-48
2023/05/11 11:01:02;;;;;;;6.15;3.42;;;15.50;53.10;;;;;;5010248;28;20209;-51
2023/05/11 11:03:33;;;;;;;8.75;4.45;;;15.60;52.60;;;;;;5008955;28;20231;-50
2023/05/11 11:06:04;;;;;;;5.07;3.80;;;15.50;52.60;;;;;;5010001;28;20204;-48
2023/05/11 11:08:58;;;;;;;7.28;3.90;;;15.50;52.60;;;;;;5010205;28;20689;-50
2023/05/11 11:11:41;;;;;;;6.45;4.40;;;15.50;52.60;;;;;;5003596;28;20204;-49
2023/05/11 11:14:13;;;;;;;5.80;4.18;;;15.50;52.60;;;;;;5011521;28;20288;-48
2023/05/11 11:17:03;;;;;;;7.30;4.10;;;15.50;52.60;;;;;;5010321;28;20200;-50
2023/05/11 11:19:41;;;;;;;6.70;4.25;;;15.50;52.60;;;;;;5011344;28;20221;-51
2023/05/11 11:22:45;;;;;;;7.03;3.92;;;15.50;52.60;;;;;;5010799;28;20212;-47
2023/05/11 11:25:37;;;;;;;6.35;3.78;;;15.50;52.60;;;;;;5011156;28;20207;-47
2023/05/11 11:28:10;;;;;;;6.18;4.22;;;15.40;52.50;;;;;;5010205;28;20220;-48
2023/05/11 11:30:41;;;;;;;6.13;4.22;;;15.40;52.50;;;;;;5011223;28;20193;-50
2023/05/11 11:33:44;;;;;;;6.50;3.90;;;15.40;52.50;;;;;;5009158;28;20679;-50
2023/05/11 11:36:15;;;;;;;6.95;3.80;;;15.40;52.60;;;;;;4949736;28;20191;-50
2023/05/11 11:39:00;;;;;;;7.43;4.20;;;15.40;52.60;;;;;;4948706;29;20305;-51
2023/05/11 11:41:34;;;;;;;7.40;3.90;;;15.40;52.60;;;;;;4974383;28;20193;-52
2023/05/11 11:44:07;;;;;;;7.40;4.15;;;15.40;52.60;;;;;;5007179;28;20232;-53
2023/05/11 11:46:37;;;;;;;7.95;4.22;;;15.40;52.60;;;;;;5009919;28;20640;-52
2023/05/11 11:49:11;;;;;;;6.25;4.00;;;15.40;52.60;;;;;;5010991;28;20351;-49
2023/05/11 11:51:43;;;;;;;5.40;3.50;;;15.30;52.50;;;;;;5009851;28;20693;-49
2023/05/11 11:54:13;;;;;;;7.00;4.03;;;15.30;52.50;;;;;;5010595;28;20584;-50
2023/05/11 11:56:47;;;;;;;5.60;3.42;;;15.30;52.50;;;;;;5010717;28;20204;-49
2023/05/11 11:59:20;;;;;;;4.75;3.45;;;15.30;52.50;;;;;;5010922;28;20215;-47
2023/05/11 12:01:55;;;;;;;5.28;3.22;;;15.30;52.50;;;;;;5011654;28;20549;-51
2023/05/11 12:04:58;;;;;;;4.75;3.45;;;15.30;52.50;;;;;;5010342;28;20874;-48
2023/05/11 12:07:33;;;;;;;5.00;3.08;;;15.30;52.50;;;;;;5007518;28;20296;-48
2023/05/11 12:10:06;;;;;;;6.10;3.78;;;15.30;52.50;;;;;;5009757;28;20212;-47
2023/05/11 12:12:36;;;;;;;5.88;3.72;;;15.30;52.50;;;;;;5009002;28;20215;-50
2023/05/11 12:15:10;;;;;;;5.35;3.40;;;15.20;52.40;;;;;;5010860;28;20812;-50
2023/05/11 12:17:41;;;;;;;7.20;3.30;;;15.30;52.50;;;;;;5013500;28;20868;-49
2023/05/11 12:20:16;;;;;;;4.63;3.25;;;15.20;52.50;;;;;;5011257;28;20231;-55
2023/05/11 12:22:48;;;;;;;6.50;3.58;;;15.20;52.50;;;;;;5013293;28;20564;-54
2023/05/11 12:25:19;;;;;;;5.22;3.50;;;15.20;52.50;;;;;;5013574;28;20420;-52
2023/05/11 12:27:53;;;;;;;4.93;3.30;;;15.20;52.50;;;;;;5011021;28;20189;-51
2023/05/11 12:30:27;;;;;;;7.22;3.42;;;15.20;52.50;;;;;;5013775;28;20192;-49
2023/05/11 12:32:58;;;;;;;4.45;3.35;;;15.20;52.50;;;;;;5013293;28;20212;-49
2023/05/11 12:35:31;;;;;;;5.93;3.80;;;15.20;52.50;;;;;;5010902;28;20196;-52
2023/05/11 12:38:03;;;;;;;4.88;3.05;;;15.20;52.50;;;;;;5012949;28;20658;-50
2023/05/11 12:40:34;;;;;;;5.32;3.50;;;15.20;52.50;;;;;;5011065;28;20252;-52
2023/05/11 12:43:05;;;;;;;5.05;3.67;;;15.20;52.50;;;;;;5012981;28;20587;-51
2023/05/11 12:45:37;;;;;;;4.45;3.17;;;15.20;52.50;;;;;;5013064;28;20200;-51
2023/05/11 12:48:09;;;;;;;5.13;3.20;;;15.20;52.50;;;;;;5009991;28;20241;-49
2023/05/11 12:50:43;;;;;;;5.88;3.30;;;15.20;52.50;;;;;;5012969;28;20203;-51
2023/05/11 12:53:17;;;;;;;5.20;3.25;;;15.20;52.50;;;;;;5011852;28;20197;-49
2023/05/11 12:55:58;;;;;;;3.67;3.00;;;15.20;52.50;;;;;;5014498;28;20207;-49
2023/05/11 12:58:36;;;;;;;4.05;3.00;;;15.20;52.50;;;;;;5014138;28;20224;-47
2023/05/11 13:01:09;;;;;;;6.00;3.20;;;15.20;52.50;;;;;;5014217;28;20196;-49
2023/05/11 13:03:40;;;;;;;5.18;3.55;;;15.10;52.50;;;;;;5013345;28;20260;-50
2023/05/11 13:06:11;;;;;;;3.88;2.80;;;15.20;52.50;;;;;;5013541;28;20204;-54
2023/05/11 13:08:46;;;;;;;4.45;3.13;;;15.20;52.50;;;;;;5013670;28;20220;-51
2023/05/11 13:11:21;;;;;;;5.50;3.00;;;15.20;52.50;;;;;;5013738;28;20551;-53
2023/05/11 13:13:52;;;;;;;5.82;3.40;;;15.10;52.40;;;;;;5013883;28;20291;-54
2023/05/11 13:16:32;;;;;;;4.93;2.80;;;15.20;52.50;;;;;;5013923;28;20197;-55